Accueil
METAR-TAF:

METAR-TAF

Aéroports :

Sabadell, Espagne

latitude: 41-31N, longitude: 002-06E, altitude: 250 m

Observation

Le bulletin a été fait il y a 30 minutes, à 23:30 UTC
Vent 7 kt de ouest
Température 12°C
Humidité 67%
Pression 1014 hPa
Visibilité 10 km ou plus

METAR: LELL 252330Z AUTO 27007KT 9999 NCD 12/06 Q1014

Heure: 02:00 (00:00 UTC)

Prévision

Le bulletin a été fait il y a 10 heures et 0 minutes, à 14:00 UTC
Prévision valable du 25 à 15 UTC au 26 à 15 UTC
Vent 10 kt de ouest/nord-ouest
Visibilité 10 km ou plus
Nuages épars à une hauteur de 1500 ft
Temporairement
du 25 à 15 UTC au 25 à 18 UTC
Vent 8 kt de sud-ouest
Temporairement
du 26 à 02 UTC au 26 à 15 UTC
Vent 12 kt de ouest/nord-ouest avec des rafales jusqu'à 25 kt

TAF: LELL 251400Z 2515/2615 29010KT 9999 SCT015 TX23/2613Z TN09/2606Z TEMPO 2515/2518 23008KT TEMPO 2602/2615 29012G25KT

Observations et prévisions météorologiques de plus de 4000 aéroports (messages METAR et TAF).

Les stations disponibles sont représentées par des disques jaunes et rouges sur la carte.

Passer la souris dessus pour voir le nom de la station.

Cliquer dessus pour voir les observations et prévisions météorologiques.

Pour changer de carte: cliquez sur les boutons verts avec une croix noire pour zoomer, sur le bouton vert avec un tiret pour effectuer un zoom arrière, ou sur les flèches vertes pour les cartes adjacentes.


METAR-TAF: